sensor_id;sensor_type;location;lat;lon;timestamp;P1;durP1;ratioP1;P2;durP2;ratioP2
77350;SDS011;66420;50.246;14.320;2023-04-24T00:01:39;16.20;;;8.23;;
77350;SDS011;66420;50.246;14.320;2023-04-24T00:04:24;16.45;;;8.10;;
77350;SDS011;66420;50.246;14.320;2023-04-24T00:07:10;14.48;;;8.50;;
77350;SDS011;66420;50.246;14.320;2023-04-24T00:09:56;14.48;;;8.85;;
77350;SDS011;66420;50.246;14.320;2023-04-24T00:12:42;13.43;;;8.23;;
77350;SDS011;66420;50.246;14.320;2023-04-24T00:15:26;14.50;;;8.10;;
77350;SDS011;66420;50.246;14.320;2023-04-24T00:18:11;18.02;;;8.65;;
77350;SDS011;66420;50.246;14.320;2023-04-24T00:20:55;16.48;;;8.70;;
77350;SDS011;66420;50.246;14.320;2023-04-24T00:23:40;12.70;;;7.13;;
77350;SDS011;66420;50.246;14.320;2023-04-24T00:26:26;12.45;;;7.13;;
77350;SDS011;66420;50.246;14.320;2023-04-24T00:29:11;16.38;;;8.70;;
77350;SDS011;66420;50.246;14.320;2023-04-24T00:31:56;14.88;;;7.82;;
77350;SDS011;66420;50.246;14.320;2023-04-24T00:34:41;16.23;;;8.55;;
77350;SDS011;66420;50.246;14.320;2023-04-24T00:37:26;14.52;;;7.10;;
77350;SDS011;66420;50.246;14.320;2023-04-24T00:40:11;14.35;;;7.88;;
77350;SDS011;66420;50.246;14.320;2023-04-24T00:42:56;13.75;;;8.50;;
77350;SDS011;66420;50.246;14.320;2023-04-24T00:45:40;12.15;;;6.82;;
77350;SDS011;66420;50.246;14.320;2023-04-24T00:48:25;12.40;;;7.45;;
77350;SDS011;66420;50.246;14.320;2023-04-24T00:51:11;13.88;;;8.15;;
77350;SDS011;66420;50.246;14.320;2023-04-24T00:53:56;13.20;;;8.18;;
77350;SDS011;66420;50.246;14.320;2023-04-24T00:56:42;15.95;;;7.97;;
77350;SDS011;66420;50.246;14.320;2023-04-24T00:59:26;12.77;;;7.78;;
77350;SDS011;66420;50.246;14.320;2023-04-24T01:02:11;11.00;;;6.53;;
77350;SDS011;66420;50.246;14.320;2023-04-24T01:04:57;13.70;;;7.63;;
77350;SDS011;66420;50.246;14.320;2023-04-24T01:07:43;12.85;;;7.30;;
77350;SDS011;66420;50.246;14.320;2023-04-24T01:10:29;12.40;;;6.65;;
77350;SDS011;66420;50.246;14.320;2023-04-24T01:13:17;13.55;;;7.60;;
77350;SDS011;66420;50.246;14.320;2023-04-24T01:16:03;11.75;;;7.30;;
77350;SDS011;66420;50.246;14.320;2023-04-24T01:18:48;14.10;;;8.25;;
77350;SDS011;66420;50.246;14.320;2023-04-24T01:21:34;15.00;;;8.60;;
77350;SDS011;66420;50.246;14.320;2023-04-24T01:24:21;12.80;;;7.47;;
77350;SDS011;66420;50.246;14.320;2023-04-24T01:27:05;15.32;;;8.35;;
77350;SDS011;66420;50.246;14.320;2023-04-24T01:29:50;13.20;;;7.68;;
77350;SDS011;66420;50.246;14.320;2023-04-24T01:32:36;16.38;;;7.85;;
77350;SDS011;66420;50.246;14.320;2023-04-24T01:35:21;15.57;;;8.20;;
77350;SDS011;66420;50.246;14.320;2023-04-24T01:38:06;16.00;;;8.65;;
77350;SDS011;66420;50.246;14.320;2023-04-24T01:40:51;15.93;;;8.57;;
77350;SDS011;66420;50.246;14.320;2023-04-24T01:43:36;17.00;;;8.52;;
77350;SDS011;66420;50.246;14.320;2023-04-24T01:46:21;14.30;;;7.60;;
77350;SDS011;66420;50.246;14.320;2023-04-24T01:49:06;15.25;;;8.63;;
77350;SDS011;66420;50.246;14.320;2023-04-24T01:51:51;14.90;;;8.85;;
77350;SDS011;66420;50.246;14.320;2023-04-24T01:54:36;16.60;;;8.80;;
77350;SDS011;66420;50.246;14.320;2023-04-24T01:57:21;13.30;;;7.45;;
77350;SDS011;66420;50.246;14.320;2023-04-24T02:00:06;14.10;;;7.85;;
77350;SDS011;66420;50.246;14.320;2023-04-24T02:02:51;13.65;;;8.25;;
77350;SDS011;66420;50.246;14.320;2023-04-24T02:05:36;12.23;;;7.55;;
77350;SDS011;66420;50.246;14.320;2023-04-24T02:08:20;12.27;;;6.95;;
77350;SDS011;66420;50.246;14.320;2023-04-24T02:11:05;10.15;;;6.15;;
77350;SDS011;66420;50.246;14.320;2023-04-24T02:13:50;11.50;;;6.22;;
77350;SDS011;66420;50.246;14.320;2023-04-24T02:16:35;8.10;;;3.17;;
77350;SDS011;66420;50.246;14.320;2023-04-24T02:19:20;6.63;;;2.67;;
77350;SDS011;66420;50.246;14.320;2023-04-24T02:22:05;7.80;;;4.03;;
77350;SDS011;66420;50.246;14.320;2023-04-24T02:24:49;4.97;;;2.88;;
77350;SDS011;66420;50.246;14.320;2023-04-24T02:27:34;6.80;;;3.33;;
77350;SDS011;66420;50.246;14.320;2023-04-24T02:30:18;7.75;;;4.55;;
77350;SDS011;66420;50.246;14.320;2023-04-24T02:33:04;11.40;;;5.85;;
77350;SDS011;66420;50.246;14.320;2023-04-24T02:35:49;10.73;;;5.28;;
77350;SDS011;66420;50.246;14.320;2023-04-24T02:38:34;9.00;;;5.15;;
77350;SDS011;66420;50.246;14.320;2023-04-24T02:41:19;9.68;;;4.78;;
77350;SDS011;66420;50.246;14.320;2023-04-24T02:44:04;7.28;;;4.30;;
77350;SDS011;66420;50.246;14.320;2023-04-24T02:46:49;9.23;;;4.68;;
77350;SDS011;66420;50.246;14.320;2023-04-24T02:49:34;9.88;;;5.85;;
77350;SDS011;66420;50.246;14.320;2023-04-24T02:52:19;12.27;;;7.40;;
77350;SDS011;66420;50.246;14.320;2023-04-24T02:55:03;13.68;;;7.85;;
77350;SDS011;66420;50.246;14.320;2023-04-24T02:57:49;12.07;;;7.28;;
77350;SDS011;66420;50.246;14.320;2023-04-24T03:00:33;14.00;;;7.43;;
77350;SDS011;66420;50.246;14.320;2023-04-24T03:03:18;10.73;;;5.82;;
77350;SDS011;66420;50.246;14.320;2023-04-24T03:06:03;11.93;;;6.38;;
77350;SDS011;66420;50.246;14.320;2023-04-24T03:08:50;10.50;;;5.78;;
77350;SDS011;66420;50.246;14.320;2023-04-24T03:11:35;10.55;;;5.10;;
77350;SDS011;66420;50.246;14.320;2023-04-24T03:14:19;7.68;;;4.18;;
77350;SDS011;66420;50.246;14.320;2023-04-24T03:17:04;6.95;;;3.45;;
77350;SDS011;66420;50.246;14.320;2023-04-24T03:19:49;9.75;;;3.70;;
77350;SDS011;66420;50.246;14.320;2023-04-24T03:22:34;7.57;;;3.83;;
77350;SDS011;66420;50.246;14.320;2023-04-24T03:25:19;6.88;;;3.28;;
77350;SDS011;66420;50.246;14.320;2023-04-24T03:28:04;6.97;;;3.00;;
77350;SDS011;66420;50.246;14.320;2023-04-24T03:30:49;7.35;;;3.25;;
77350;SDS011;66420;50.246;14.320;2023-04-24T03:33:34;6.18;;;3.30;;
77350;SDS011;66420;50.246;14.320;2023-04-24T03:36:20;5.68;;;3.17;;
77350;SDS011;66420;50.246;14.320;2023-04-24T03:39:05;5.45;;;3.13;;
77350;SDS011;66420;50.246;14.320;2023-04-24T03:41:50;5.05;;;2.80;;
77350;SDS011;66420;50.246;14.320;2023-04-24T03:44:34;6.65;;;2.70;;
77350;SDS011;66420;50.246;14.320;2023-04-24T03:47:20;5.32;;;2.85;;
77350;SDS011;66420;50.246;14.320;2023-04-24T03:50:05;5.85;;;2.58;;
77350;SDS011;66420;50.246;14.320;2023-04-24T03:52:50;7.57;;;3.45;;
77350;SDS011;66420;50.246;14.320;2023-04-24T03:55:35;6.70;;;3.00;;
77350;SDS011;66420;50.246;14.320;2023-04-24T03:58:20;5.72;;;3.10;;
77350;SDS011;66420;50.246;14.320;2023-04-24T04:01:05;5.95;;;3.28;;
77350;SDS011;66420;50.246;14.320;2023-04-24T04:03:50;6.30;;;3.30;;
77350;SDS011;66420;50.246;14.320;2023-04-24T04:06:35;5.25;;;3.20;;
77350;SDS011;66420;50.246;14.320;2023-04-24T04:09:20;5.22;;;3.08;;
77350;SDS011;66420;50.246;14.320;2023-04-24T04:12:05;6.85;;;3.30;;
77350;SDS011;66420;50.246;14.320;2023-04-24T04:14:49;8.40;;;4.13;;
77350;SDS011;66420;50.246;14.320;2023-04-24T04:17:34;7.55;;;4.10;;
77350;SDS011;66420;50.246;14.320;2023-04-24T04:20:19;6.28;;;3.35;;
77350;SDS011;66420;50.246;14.320;2023-04-24T04:23:03;7.60;;;4.13;;
77350;SDS011;66420;50.246;14.320;2023-04-24T04:25:49;8.40;;;5.07;;
77350;SDS011;66420;50.246;14.320;2023-04-24T04:28:34;8.10;;;3.95;;
77350;SDS011;66420;50.246;14.320;2023-04-24T04:31:19;7.70;;;4.68;;
77350;SDS011;66420;50.246;14.320;2023-04-24T04:34:05;6.93;;;3.95;;
77350;SDS011;66420;50.246;14.320;2023-04-24T04:36:50;9.45;;;5.28;;
77350;SDS011;66420;50.246;14.320;2023-04-24T04:39:34;9.30;;;4.70;;
77350;SDS011;66420;50.246;14.320;2023-04-24T04:42:19;9.18;;;5.05;;
77350;SDS011;66420;50.246;14.320;2023-04-24T04:45:04;13.10;;;5.55;;
77350;SDS011;66420;50.246;14.320;2023-04-24T04:47:50;7.05;;;4.50;;
77350;SDS011;66420;50.246;14.320;2023-04-24T04:50:35;7.32;;;4.30;;
77350;SDS011;66420;50.246;14.320;2023-04-24T04:53:20;6.75;;;3.97;;
77350;SDS011;66420;50.246;14.320;2023-04-24T04:56:04;6.90;;;3.90;;
77350;SDS011;66420;50.246;14.320;2023-04-24T04:58:49;7.50;;;4.00;;
77350;SDS011;66420;50.246;14.320;2023-04-24T05:01:34;9.85;;;4.00;;
77350;SDS011;66420;50.246;14.320;2023-04-24T05:04:19;7.25;;;4.15;;
77350;SDS011;66420;50.246;14.320;2023-04-24T05:07:03;8.15;;;4.85;;
77350;SDS011;66420;50.246;14.320;2023-04-24T05:09:48;8.98;;;4.38;;
77350;SDS011;66420;50.246;14.320;2023-04-24T05:12:33;8.10;;;4.63;;
77350;SDS011;66420;50.246;14.320;2023-04-24T05:15:17;7.95;;;4.38;;
77350;SDS011;66420;50.246;14.320;2023-04-24T05:18:02;7.93;;;3.97;;
77350;SDS011;66420;50.246;14.320;2023-04-24T05:20:47;8.13;;;4.68;;
77350;SDS011;66420;50.246;14.320;2023-04-24T05:23:31;7.40;;;4.20;;
77350;SDS011;66420;50.246;14.320;2023-04-24T05:26:16;8.00;;;4.78;;
77350;SDS011;66420;50.246;14.320;2023-04-24T05:29:02;9.63;;;4.55;;
77350;SDS011;66420;50.246;14.320;2023-04-24T05:31:46;7.45;;;4.30;;
77350;SDS011;66420;50.246;14.320;2023-04-24T05:34:31;7.00;;;3.97;;
77350;SDS011;66420;50.246;14.320;2023-04-24T05:37:16;7.78;;;4.03;;
77350;SDS011;66420;50.246;14.320;2023-04-24T05:40:01;7.43;;;4.13;;
77350;SDS011;66420;50.246;14.320;2023-04-24T05:42:48;8.45;;;4.10;;
77350;SDS011;66420;50.246;14.320;2023-04-24T05:45:32;6.45;;;3.75;;
77350;SDS011;66420;50.246;14.320;2023-04-24T05:48:20;7.38;;;4.00;;
77350;SDS011;66420;50.246;14.320;2023-04-24T05:51:06;8.23;;;4.55;;
77350;SDS011;66420;50.246;14.320;2023-04-24T05:53:51;7.47;;;3.92;;
77350;SDS011;66420;50.246;14.320;2023-04-24T05:56:36;6.57;;;3.88;;
77350;SDS011;66420;50.246;14.320;2023-04-24T05:59:22;6.90;;;3.72;;
77350;SDS011;66420;50.246;14.320;2023-04-24T06:02:07;5.55;;;4.15;;
77350;SDS011;66420;50.246;14.320;2023-04-24T06:04:52;6.18;;;3.63;;
77350;SDS011;66420;50.246;14.320;2023-04-24T06:07:36;8.82;;;4.20;;
77350;SDS011;66420;50.246;14.320;2023-04-24T06:10:22;9.95;;;4.47;;
77350;SDS011;66420;50.246;14.320;2023-04-24T06:13:06;7.45;;;3.83;;
77350;SDS011;66420;50.246;14.320;2023-04-24T06:15:52;7.07;;;3.88;;
77350;SDS011;66420;50.246;14.320;2023-04-24T06:18:37;8.05;;;4.13;;
77350;SDS011;66420;50.246;14.320;2023-04-24T06:21:22;6.07;;;3.80;;
77350;SDS011;66420;50.246;14.320;2023-04-24T06:24:07;5.53;;;3.22;;
77350;SDS011;66420;50.246;14.320;2023-04-24T06:26:52;7.50;;;3.53;;
77350;SDS011;66420;50.246;14.320;2023-04-24T06:29:36;5.38;;;3.30;;
77350;SDS011;66420;50.246;14.320;2023-04-24T06:32:22;4.20;;;3.10;;
77350;SDS011;66420;50.246;14.320;2023-04-24T06:35:08;19.67;;;4.15;;
77350;SDS011;66420;50.246;14.320;2023-04-24T06:37:53;10.85;;;3.95;;
77350;SDS011;66420;50.246;14.320;2023-04-24T06:40:40;17.77;;;4.57;;
77350;SDS011;66420;50.246;14.320;2023-04-24T06:43:25;9.43;;;2.97;;
77350;SDS011;66420;50.246;14.320;2023-04-24T06:46:10;6.03;;;2.65;;
77350;SDS011;66420;50.246;14.320;2023-04-24T06:48:55;4.43;;;2.40;;
77350;SDS011;66420;50.246;14.320;2023-04-24T06:51:41;7.75;;;3.17;;
77350;SDS011;66420;50.246;14.320;2023-04-24T06:54:25;5.25;;;2.83;;
77350;SDS011;66420;50.246;14.320;2023-04-24T06:57:10;9.30;;;3.05;;
77350;SDS011;66420;50.246;14.320;2023-04-24T06:59:55;7.93;;;3.28;;
77350;SDS011;66420;50.246;14.320;2023-04-24T07:02:40;8.63;;;3.40;;
77350;SDS011;66420;50.246;14.320;2023-04-24T07:05:25;7.63;;;3.63;;
77350;SDS011;66420;50.246;14.320;2023-04-24T07:08:10;12.07;;;3.38;;
77350;SDS011;66420;50.246;14.320;2023-04-24T07:10:55;15.20;;;3.72;;
77350;SDS011;66420;50.246;14.320;2023-04-24T07:13:41;19.85;;;4.18;;
77350;SDS011;66420;50.246;14.320;2023-04-24T07:16:26;11.05;;;3.40;;
77350;SDS011;66420;50.246;14.320;2023-04-24T07:19:11;9.10;;;2.80;;
77350;SDS011;66420;50.246;14.320;2023-04-24T07:21:57;5.47;;;3.17;;
77350;SDS011;66420;50.246;14.320;2023-04-24T07:24:43;11.23;;;3.05;;
77350;SDS011;66420;50.246;14.320;2023-04-24T07:27:28;23.15;;;4.60;;
77350;SDS011;66420;50.246;14.320;2023-04-24T07:30:12;6.05;;;3.40;;
77350;SDS011;66420;50.246;14.320;2023-04-24T07:32:57;6.00;;;2.80;;
77350;SDS011;66420;50.246;14.320;2023-04-24T07:35:42;6.15;;;2.53;;
77350;SDS011;66420;50.246;14.320;2023-04-24T07:38:29;5.18;;;2.40;;
77350;SDS011;66420;50.246;14.320;2023-04-24T07:41:14;4.47;;;2.78;;
77350;SDS011;66420;50.246;14.320;2023-04-24T07:43:59;4.55;;;2.25;;
77350;SDS011;66420;50.246;14.320;2023-04-24T07:46:44;5.47;;;2.40;;
77350;SDS011;66420;50.246;14.320;2023-04-24T07:49:29;8.40;;;3.10;;
77350;SDS011;66420;50.246;14.320;2023-04-24T07:52:13;6.90;;;2.30;;
77350;SDS011;66420;50.246;14.320;2023-04-24T07:54:58;14.40;;;3.05;;
77350;SDS011;66420;50.246;14.320;2023-04-24T07:57:44;4.22;;;2.40;;
77350;SDS011;66420;50.246;14.320;2023-04-24T08:00:29;4.90;;;2.40;;
77350;SDS011;66420;50.246;14.320;2023-04-24T08:03:14;7.03;;;2.70;;
77350;SDS011;66420;50.246;14.320;2023-04-24T08:05:58;9.05;;;2.58;;
77350;SDS011;66420;50.246;14.320;2023-04-24T08:08:43;14.75;;;3.60;;
77350;SDS011;66420;50.246;14.320;2023-04-24T08:11:28;5.22;;;2.63;;
77350;SDS011;66420;50.246;14.320;2023-04-24T08:14:13;4.82;;;2.20;;
77350;SDS011;66420;50.246;14.320;2023-04-24T08:16:59;5.57;;;2.47;;
77350;SDS011;66420;50.246;14.320;2023-04-24T08:19:44;3.38;;;2.08;;
77350;SDS011;66420;50.246;14.320;2023-04-24T08:22:32;3.45;;;2.03;;
77350;SDS011;66420;50.246;14.320;2023-04-24T08:25:16;5.18;;;2.00;;
77350;SDS011;66420;50.246;14.320;2023-04-24T08:28:03;2.85;;;1.80;;
77350;SDS011;66420;50.246;14.320;2023-04-24T08:30:50;3.10;;;1.75;;
77350;SDS011;66420;50.246;14.320;2023-04-24T08:33:38;4.78;;;2.00;;
77350;SDS011;66420;50.246;14.320;2023-04-24T08:36:25;5.72;;;1.92;;
77350;SDS011;66420;50.246;14.320;2023-04-24T08:39:10;4.18;;;1.80;;
77350;SDS011;66420;50.246;14.320;2023-04-24T08:41:55;6.03;;;2.25;;
77350;SDS011;66420;50.246;14.320;2023-04-24T08:44:40;6.45;;;2.38;;
77350;SDS011;66420;50.246;14.320;2023-04-24T08:47:25;10.75;;;2.60;;
77350;SDS011;66420;50.246;14.320;2023-04-24T08:50:11;8.85;;;2.65;;
77350;SDS011;66420;50.246;14.320;2023-04-24T08:52:56;4.45;;;2.45;;
77350;SDS011;66420;50.246;14.320;2023-04-24T08:55:42;6.40;;;2.08;;
77350;SDS011;66420;50.246;14.320;2023-04-24T08:58:31;5.30;;;2.20;;
77350;SDS011;66420;50.246;14.320;2023-04-24T09:01:15;9.40;;;3.05;;
77350;SDS011;66420;50.246;14.320;2023-04-24T09:04:02;4.10;;;2.10;;
77350;SDS011;66420;50.246;14.320;2023-04-24T09:06:48;3.90;;;2.08;;
77350;SDS011;66420;50.246;14.320;2023-04-24T09:09:34;6.18;;;2.35;;
77350;SDS011;66420;50.246;14.320;2023-04-24T09:12:20;6.75;;;2.70;;
77350;SDS011;66420;50.246;14.320;2023-04-24T09:15:05;8.18;;;3.05;;
77350;SDS011;66420;50.246;14.320;2023-04-24T09:17:52;10.23;;;3.58;;
77350;SDS011;66420;50.246;14.320;2023-04-24T09:24:01;6.90;;;2.92;;
77350;SDS011;66420;50.246;14.320;2023-04-24T09:26:56;5.40;;;2.65;;
77350;SDS011;66420;50.246;14.320;2023-04-24T09:29:55;7.15;;;3.10;;
77350;SDS011;66420;50.246;14.320;2023-04-24T09:32:41;4.70;;;2.42;;
77350;SDS011;66420;50.246;14.320;2023-04-24T09:35:26;7.30;;;3.10;;
77350;SDS011;66420;50.246;14.320;2023-04-24T09:38:11;7.72;;;2.65;;
77350;SDS011;66420;50.246;14.320;2023-04-24T09:40:55;6.45;;;2.28;;
77350;SDS011;66420;50.246;14.320;2023-04-24T09:43:44;5.22;;;2.35;;
77350;SDS011;66420;50.246;14.320;2023-04-24T09:46:29;4.68;;;2.58;;
77350;SDS011;66420;50.246;14.320;2023-04-24T09:49:25;5.20;;;2.50;;
77350;SDS011;66420;50.246;14.320;2023-04-24T09:52:14;5.10;;;2.30;;
77350;SDS011;66420;50.246;14.320;2023-04-24T09:54:59;5.75;;;2.58;;
77350;SDS011;66420;50.246;14.320;2023-04-24T09:57:50;4.65;;;2.03;;
77350;SDS011;66420;50.246;14.320;2023-04-24T10:00:36;11.02;;;2.90;;
77350;SDS011;66420;50.246;14.320;2023-04-24T10:03:25;3.95;;;1.98;;
77350;SDS011;66420;50.246;14.320;2023-04-24T10:06:12;9.13;;;2.42;;
77350;SDS011;66420;50.246;14.320;2023-04-24T10:08:57;3.67;;;1.80;;
77350;SDS011;66420;50.246;14.320;2023-04-24T10:11:44;2.95;;;1.67;;
77350;SDS011;66420;50.246;14.320;2023-04-24T10:14:30;6.53;;;2.20;;
77350;SDS011;66420;50.246;14.320;2023-04-24T10:17:15;4.00;;;1.58;;
77350;SDS011;66420;50.246;14.320;2023-04-24T10:20:00;3.60;;;1.30;;
77350;SDS011;66420;50.246;14.320;2023-04-24T10:22:49;2.33;;;1.02;;
77350;SDS011;66420;50.246;14.320;2023-04-24T10:25:36;3.67;;;1.17;;
77350;SDS011;66420;50.246;14.320;2023-04-24T10:28:21;1.83;;;0.93;;
77350;SDS011;66420;50.246;14.320;2023-04-24T10:31:08;2.20;;;0.85;;
77350;SDS011;66420;50.246;14.320;2023-04-24T10:33:54;3.80;;;1.15;;
77350;SDS011;66420;50.246;14.320;2023-04-24T10:36:40;3.10;;;1.23;;
77350;SDS011;66420;50.246;14.320;2023-04-24T10:39:27;2.50;;;1.00;;
77350;SDS011;66420;50.246;14.320;2023-04-24T10:42:16;3.08;;;1.23;;
77350;SDS011;66420;50.246;14.320;2023-04-24T10:45:05;3.53;;;1.50;;
77350;SDS011;66420;50.246;14.320;2023-04-24T10:50:55;2.55;;;1.20;;
77350;SDS011;66420;50.246;14.320;2023-04-24T10:53:40;2.50;;;1.30;;
77350;SDS011;66420;50.246;14.320;2023-04-24T10:56:24;3.28;;;1.20;;
77350;SDS011;66420;50.246;14.320;2023-04-24T10:59:10;6.45;;;1.48;;
77350;SDS011;66420;50.246;14.320;2023-04-24T11:01:55;2.63;;;1.08;;
77350;SDS011;66420;50.246;14.320;2023-04-24T11:04:40;9.57;;;1.70;;
77350;SDS011;66420;50.246;14.320;2023-04-24T11:07:26;6.40;;;1.20;;
77350;SDS011;66420;50.246;14.320;2023-04-24T11:10:24;2.80;;;1.20;;
77350;SDS011;66420;50.246;14.320;2023-04-24T11:13:10;4.22;;;1.20;;
77350;SDS011;66420;50.246;14.320;2023-04-24T11:19:25;3.05;;;1.00;;
77350;SDS011;66420;50.246;14.320;2023-04-24T11:22:14;2.28;;;0.90;;
77350;SDS011;66420;50.246;14.320;2023-04-24T11:25:01;3.40;;;1.10;;
77350;SDS011;66420;50.246;14.320;2023-04-24T11:27:47;2.65;;;0.93;;
77350;SDS011;66420;50.246;14.320;2023-04-24T11:30:33;2.03;;;0.80;;
77350;SDS011;66420;50.246;14.320;2023-04-24T11:33:19;2.03;;;0.93;;
77350;SDS011;66420;50.246;14.320;2023-04-24T11:36:05;2.42;;;1.00;;
77350;SDS011;66420;50.246;14.320;2023-04-24T11:38:51;4.03;;;1.17;;
77350;SDS011;66420;50.246;14.320;2023-04-24T11:41:36;2.95;;;0.90;;
77350;SDS011;66420;50.246;14.320;2023-04-24T11:44:21;4.47;;;1.20;;
77350;SDS011;66420;50.246;14.320;2023-04-24T11:47:06;1.88;;;1.02;;
77350;SDS011;66420;50.246;14.320;2023-04-24T11:49:52;2.88;;;1.00;;
77350;SDS011;66420;50.246;14.320;2023-04-24T11:52:37;1.90;;;1.00;;
77350;SDS011;66420;50.246;14.320;2023-04-24T11:55:24;3.22;;;1.00;;
77350;SDS011;66420;50.246;14.320;2023-04-24T11:58:11;4.88;;;0.82;;
77350;SDS011;66420;50.246;14.320;2023-04-24T12:00:56;4.97;;;1.20;;
77350;SDS011;66420;50.246;14.320;2023-04-24T12:03:42;6.05;;;1.23;;
77350;SDS011;66420;50.246;14.320;2023-04-24T12:06:32;2.67;;;1.00;;
77350;SDS011;66420;50.246;14.320;2023-04-24T12:09:16;2.55;;;1.20;;
77350;SDS011;66420;50.246;14.320;2023-04-24T12:12:01;7.25;;;1.20;;
77350;SDS011;66420;50.246;14.320;2023-04-24T12:14:50;2.72;;;1.10;;
77350;SDS011;66420;50.246;14.320;2023-04-24T12:17:40;2.22;;;0.90;;
77350;SDS011;66420;50.246;14.320;2023-04-24T12:20:30;2.20;;;1.00;;
77350;SDS011;66420;50.246;14.320;2023-04-24T12:23:16;3.67;;;0.98;;
77350;SDS011;66420;50.246;14.320;2023-04-24T12:26:04;4.57;;;1.00;;
77350;SDS011;66420;50.246;14.320;2023-04-24T12:28:50;2.45;;;0.75;;
77350;SDS011;66420;50.246;14.320;2023-04-24T12:31:34;15.32;;;1.67;;
77350;SDS011;66420;50.246;14.320;2023-04-24T12:34:19;2.63;;;0.80;;
77350;SDS011;66420;50.246;14.320;2023-04-24T12:37:11;6.82;;;0.88;;
77350;SDS011;66420;50.246;14.320;2023-04-24T12:40:07;2.35;;;0.63;;
77350;SDS011;66420;50.246;14.320;2023-04-24T12:42:55;2.28;;;0.75;;
77350;SDS011;66420;50.246;14.320;2023-04-24T12:45:39;2.28;;;0.60;;
77350;SDS011;66420;50.246;14.320;2023-04-24T12:48:25;4.00;;;0.70;;
77350;SDS011;66420;50.246;14.320;2023-04-24T12:51:13;3.63;;;0.93;;
77350;SDS011;66420;50.246;14.320;2023-04-24T12:53:57;1.90;;;0.80;;
77350;SDS011;66420;50.246;14.320;2023-04-24T12:56:42;5.68;;;0.73;;
77350;SDS011;66420;50.246;14.320;2023-04-24T12:59:27;1.52;;;0.60;;
77350;SDS011;66420;50.246;14.320;2023-04-24T13:02:12;2.05;;;0.70;;
77350;SDS011;66420;50.246;14.320;2023-04-24T13:04:58;2.63;;;0.90;;
77350;SDS011;66420;50.246;14.320;2023-04-24T13:07:43;3.28;;;1.05;;
77350;SDS011;66420;50.246;14.320;2023-04-24T13:10:28;7.85;;;1.20;;
77350;SDS011;66420;50.246;14.320;2023-04-24T13:13:12;2.05;;;0.90;;
77350;SDS011;66420;50.246;14.320;2023-04-24T13:15:57;2.75;;;0.95;;
77350;SDS011;66420;50.246;14.320;2023-04-24T13:18:42;8.07;;;1.80;;
77350;SDS011;66420;50.246;14.320;2023-04-24T13:21:26;4.15;;;0.95;;
77350;SDS011;66420;50.246;14.320;2023-04-24T13:24:11;4.38;;;1.10;;
77350;SDS011;66420;50.246;14.320;2023-04-24T13:26:57;1.95;;;0.80;;
77350;SDS011;66420;50.246;14.320;2023-04-24T13:29:42;2.42;;;0.88;;
77350;SDS011;66420;50.246;14.320;2023-04-24T13:32:27;2.00;;;0.90;;
77350;SDS011;66420;50.246;14.320;2023-04-24T13:35:12;3.08;;;0.80;;
77350;SDS011;66420;50.246;14.320;2023-04-24T13:37:57;3.03;;;1.02;;
77350;SDS011;66420;50.246;14.320;2023-04-24T13:40:42;2.70;;;0.63;;
77350;SDS011;66420;50.246;14.320;2023-04-24T13:43:26;1.40;;;0.70;;
77350;SDS011;66420;50.246;14.320;2023-04-24T13:46:11;1.27;;;0.70;;
77350;SDS011;66420;50.246;14.320;2023-04-24T13:48:56;2.78;;;0.80;;
77350;SDS011;66420;50.246;14.320;2023-04-24T13:51:42;2.50;;;0.77;;
77350;SDS011;66420;50.246;14.320;2023-04-24T13:54:26;1.58;;;0.70;;
77350;SDS011;66420;50.246;14.320;2023-04-24T13:57:13;4.20;;;0.80;;
77350;SDS011;66420;50.246;14.320;2023-04-24T13:59:58;7.38;;;1.10;;
77350;SDS011;66420;50.246;14.320;2023-04-24T14:05:32;3.25;;;0.90;;
77350;SDS011;66420;50.246;14.320;2023-04-24T14:08:17;4.05;;;0.90;;
77350;SDS011;66420;50.246;14.320;2023-04-24T14:11:01;1.20;;;0.80;;
77350;SDS011;66420;50.246;14.320;2023-04-24T14:13:47;3.88;;;1.00;;
77350;SDS011;66420;50.246;14.320;2023-04-24T14:16:32;1.98;;;0.75;;
77350;SDS011;66420;50.246;14.320;2023-04-24T14:19:17;2.28;;;0.80;;
77350;SDS011;66420;50.246;14.320;2023-04-24T14:22:02;1.95;;;0.90;;
77350;SDS011;66420;50.246;14.320;2023-04-24T14:24:47;2.75;;;1.00;;
77350;SDS011;66420;50.246;14.320;2023-04-24T14:27:32;5.72;;;0.98;;
77350;SDS011;66420;50.246;14.320;2023-04-24T14:30:18;1.85;;;1.00;;
77350;SDS011;66420;50.246;14.320;2023-04-24T14:33:03;3.13;;;1.10;;
77350;SDS011;66420;50.246;14.320;2023-04-24T14:35:48;3.28;;;1.00;;
77350;SDS011;66420;50.246;14.320;2023-04-24T14:38:33;1.13;;;0.70;;
77350;SDS011;66420;50.246;14.320;2023-04-24T14:41:19;2.13;;;0.95;;
77350;SDS011;66420;50.246;14.320;2023-04-24T14:44:04;1.50;;;0.77;;
77350;SDS011;66420;50.246;14.320;2023-04-24T14:46:49;1.38;;;0.75;;
77350;SDS011;66420;50.246;14.320;2023-04-24T14:49:34;1.67;;;0.70;;
77350;SDS011;66420;50.246;14.320;2023-04-24T14:52:20;2.67;;;1.10;;
77350;SDS011;66420;50.246;14.320;2023-04-24T14:55:05;1.48;;;0.70;;
77350;SDS011;66420;50.246;14.320;2023-04-24T14:57:51;2.15;;;0.95;;
77350;SDS011;66420;50.246;14.320;2023-04-24T15:00:36;2.13;;;0.82;;
77350;SDS011;66420;50.246;14.320;2023-04-24T15:03:21;1.48;;;0.75;;
77350;SDS011;66420;50.246;14.320;2023-04-24T15:06:06;1.75;;;1.13;;
77350;SDS011;66420;50.246;14.320;2023-04-24T15:08:51;2.83;;;1.25;;
77350;SDS011;66420;50.246;14.320;2023-04-24T15:11:36;2.05;;;1.00;;
77350;SDS011;66420;50.246;14.320;2023-04-24T15:14:21;1.92;;;0.70;;
77350;SDS011;66420;50.246;14.320;2023-04-24T15:17:05;1.73;;;0.80;;
77350;SDS011;66420;50.246;14.320;2023-04-24T15:19:50;1.50;;;0.70;;
77350;SDS011;66420;50.246;14.320;2023-04-24T15:22:35;2.60;;;0.80;;
77350;SDS011;66420;50.246;14.320;2023-04-24T15:25:20;1.77;;;0.90;;
77350;SDS011;66420;50.246;14.320;2023-04-24T15:28:05;2.42;;;0.90;;
77350;SDS011;66420;50.246;14.320;2023-04-24T15:30:50;1.80;;;0.85;;
77350;SDS011;66420;50.246;14.320;2023-04-24T15:33:35;1.88;;;0.88;;
77350;SDS011;66420;50.246;14.320;2023-04-24T15:36:19;1.45;;;0.80;;
77350;SDS011;66420;50.246;14.320;2023-04-24T15:39:05;1.95;;;0.90;;
77350;SDS011;66420;50.246;14.320;2023-04-24T15:41:49;3.13;;;0.82;;
77350;SDS011;66420;50.246;14.320;2023-04-24T15:44:35;2.28;;;0.90;;
77350;SDS011;66420;50.246;14.320;2023-04-24T15:47:19;1.02;;;0.70;;
77350;SDS011;66420;50.246;14.320;2023-04-24T15:50:05;1.13;;;0.60;;
77350;SDS011;66420;50.246;14.320;2023-04-24T15:52:52;1.65;;;0.75;;
77350;SDS011;66420;50.246;14.320;2023-04-24T15:55:36;1.15;;;0.80;;
77350;SDS011;66420;50.246;14.320;2023-04-24T15:58:22;1.60;;;0.80;;
77350;SDS011;66420;50.246;14.320;2023-04-24T16:01:06;1.70;;;0.70;;
77350;SDS011;66420;50.246;14.320;2023-04-24T16:03:51;1.50;;;0.70;;
77350;SDS011;66420;50.246;14.320;2023-04-24T16:06:35;1.90;;;0.90;;
77350;SDS011;66420;50.246;14.320;2023-04-24T16:09:20;1.20;;;0.60;;
77350;SDS011;66420;50.246;14.320;2023-04-24T16:12:05;1.23;;;0.88;;
77350;SDS011;66420;50.246;14.320;2023-04-24T16:14:50;2.58;;;1.10;;
77350;SDS011;66420;50.246;14.320;2023-04-24T16:17:35;2.22;;;0.68;;
77350;SDS011;66420;50.246;14.320;2023-04-24T16:20:20;1.67;;;1.00;;
77350;SDS011;66420;50.246;14.320;2023-04-24T16:23:05;2.35;;;1.13;;
77350;SDS011;66420;50.246;14.320;2023-04-24T16:25:50;1.50;;;0.90;;
77350;SDS011;66420;50.246;14.320;2023-04-24T16:28:35;1.63;;;0.90;;
77350;SDS011;66420;50.246;14.320;2023-04-24T16:31:20;2.47;;;0.98;;